createdAt,value
2022-09-21T00:01:29.832Z,5.87
2022-09-21T00:04:00.058Z,6.07
2022-09-21T00:06:29.249Z,5.78
2022-09-21T00:08:57.034Z,7.45
2022-09-21T00:11:27.495Z,6.32
2022-09-21T00:13:57.721Z,6.57
2022-09-21T00:16:25.391Z,6.15
2022-09-21T00:18:53.023Z,6.07
2022-09-21T00:24:07.615Z,6.20
2022-09-21T00:26:35.221Z,6.35
2022-09-21T00:29:03.993Z,5.03
2022-09-21T00:31:31.996Z,5.20
2022-09-21T00:34:00.270Z,5.60
2022-09-21T00:36:28.404Z,6.57
2022-09-21T00:38:58.130Z,5.80
2022-09-21T00:41:26.919Z,5.55
2022-09-21T00:44:32.917Z,5.80
2022-09-21T00:47:09.449Z,4.87
2022-09-21T00:49:38.401Z,6.22
2022-09-21T00:52:06.841Z,6.78
2022-09-21T00:54:43.612Z,6.05
2022-09-21T00:57:11.702Z,5.05
2022-09-21T00:59:39.767Z,6.03
2022-09-21T01:02:07.231Z,5.28
2022-09-21T01:04:36.189Z,4.70
2022-09-21T01:07:06.697Z,6.43
2022-09-21T01:09:34.528Z,6.07
2022-09-21T01:12:18.476Z,6.43
2022-09-21T01:14:50.620Z,5.12
2022-09-21T01:17:35.107Z,6.95
2022-09-21T01:20:08.627Z,6.35
2022-09-21T01:23:07.445Z,6.43
2022-09-21T01:25:34.645Z,5.32
2022-09-21T01:28:52.931Z,5.78
2022-09-21T01:31:27.020Z,6.45
2022-09-21T01:33:59.166Z,4.95
2022-09-21T01:36:29.434Z,5.32
2022-09-21T01:39:03.420Z,5.10
2022-09-21T01:41:32.436Z,5.75
2022-09-21T01:44:08.447Z,5.22
2022-09-21T01:46:37.334Z,4.57
2022-09-21T01:49:10.690Z,6.07
2022-09-21T01:51:43.897Z,5.05
2022-09-21T01:54:15.370Z,6.00
2022-09-21T01:56:51.956Z,4.57
2022-09-21T01:59:21.852Z,4.70
2022-09-21T02:01:53.767Z,6.28
2022-09-21T02:04:21.616Z,5.50
2022-09-21T02:06:49.941Z,5.15
2022-09-21T02:09:18.078Z,6.55
2022-09-21T02:11:45.971Z,6.25
2022-09-21T02:14:18.280Z,5.62
2022-09-21T02:16:45.846Z,5.75
2022-09-21T02:19:31.874Z,7.10
2022-09-21T02:22:07.814Z,4.65
2022-09-21T02:24:41.471Z,5.32
2022-09-21T02:27:26.128Z,7.80
2022-09-21T02:30:17.106Z,5.90
2022-09-21T02:33:14.017Z,6.37
2022-09-21T02:35:56.097Z,6.97
2022-09-21T02:38:42.832Z,5.72
2022-09-21T02:41:20.346Z,4.72
2022-09-21T02:43:53.142Z,5.40
2022-09-21T02:46:36.662Z,5.53
2022-09-21T02:49:11.159Z,5.60
2022-09-21T02:51:48.093Z,5.50
2022-09-21T02:54:18.679Z,5.40
2022-09-21T02:56:49.033Z,5.97
2022-09-21T02:59:16.782Z,5.97
2022-09-21T03:01:44.469Z,5.35
2022-09-21T03:04:11.917Z,6.68
2022-09-21T03:06:39.519Z,6.45
2022-09-21T03:09:07.082Z,4.87
2022-09-21T03:11:36.109Z,6.05
2022-09-21T03:14:08.448Z,6.18
2022-09-21T03:16:36.512Z,6.97
2022-09-21T03:19:05.625Z,6.75
2022-09-21T03:21:33.065Z,6.45
2022-09-21T03:24:00.436Z,5.78
2022-09-21T03:26:28.047Z,5.68
2022-09-21T03:28:55.565Z,5.55
2022-09-21T03:31:23.019Z,5.25
2022-09-21T03:33:50.649Z,5.75
2022-09-21T03:36:18.236Z,6.95
2022-09-21T03:38:45.653Z,5.97
2022-09-21T03:41:15.225Z,7.28
2022-09-21T03:43:42.579Z,6.68
2022-09-21T03:46:10.164Z,6.65
2022-09-21T03:48:37.901Z,5.57
2022-09-21T03:51:05.421Z,6.28
2022-09-21T03:53:32.823Z,5.30
2022-09-21T03:56:00.510Z,5.95
2022-09-21T03:58:27.864Z,5.93
2022-09-21T04:01:01.240Z,6.75
2022-09-21T04:03:29.825Z,5.90
2022-09-21T04:05:57.236Z,7.28
2022-09-21T04:08:24.557Z,5.78
2022-09-21T04:10:52.167Z,6.70
2022-09-21T04:13:19.503Z,6.20
2022-09-21T04:15:46.877Z,6.90
2022-09-21T04:18:15.028Z,7.00
2022-09-21T04:20:42.347Z,6.32
2022-09-21T04:23:09.992Z,7.05
2022-09-21T04:25:37.597Z,7.07
2022-09-21T04:28:04.957Z,6.93
2022-09-21T04:30:37.588Z,7.93
2022-09-21T04:33:06.063Z,6.95
2022-09-21T04:35:33.412Z,5.80
2022-09-21T04:38:00.753Z,10.05
2022-09-21T04:40:28.742Z,6.45
2022-09-21T04:42:56.222Z,8.18
2022-09-21T04:45:23.587Z,8.68
2022-09-21T04:47:51.182Z,8.02
2022-09-21T04:50:19.758Z,7.50
2022-09-21T04:52:47.727Z,7.20
2022-09-21T04:55:15.457Z,7.22
2022-09-21T04:57:42.881Z,8.25
2022-09-21T05:00:10.871Z,6.75
2022-09-21T05:02:38.453Z,8.02
2022-09-21T05:05:06.090Z,6.62
2022-09-21T05:07:33.431Z,8.65
2022-09-21T05:10:04.092Z,7.82
2022-09-21T05:12:33.065Z,7.87
2022-09-21T05:15:01.077Z,7.60
2022-09-21T05:17:28.667Z,7.93
2022-09-21T05:19:56.027Z,8.32
2022-09-21T05:22:23.810Z,7.37
2022-09-21T05:24:51.157Z,8.07
2022-09-21T05:27:18.497Z,10.55
2022-09-21T05:29:46.295Z,7.90
2022-09-21T05:32:27.347Z,9.80
2022-09-21T05:35:16.635Z,10.65
2022-09-21T05:38:04.596Z,7.85
2022-09-21T05:40:32.620Z,9.15
2022-09-21T05:43:00.322Z,7.82
2022-09-21T05:45:29.026Z,8.63
2022-09-21T05:48:06.037Z,8.13
2022-09-21T05:50:48.763Z,6.53
2022-09-21T05:53:53.507Z,7.78
2022-09-21T05:56:42.348Z,7.57
2022-09-21T05:59:12.881Z,7.35
2022-09-21T06:02:01.610Z,9.23
2022-09-21T06:04:29.608Z,7.85
2022-09-21T06:06:56.957Z,8.10
2022-09-21T06:09:25.857Z,7.87
2022-09-21T06:11:53.857Z,8.73
2022-09-21T06:14:25.524Z,8.75
2022-09-21T06:16:53.199Z,9.30
2022-09-21T06:19:20.657Z,9.68
2022-09-21T06:21:48.147Z,11.38
2022-09-21T06:24:15.751Z,9.77
2022-09-21T06:26:43.208Z,8.07
2022-09-21T06:29:10.568Z,8.00
2022-09-21T06:31:38.149Z,8.82
2022-09-21T06:34:05.606Z,8.57
2022-09-21T06:36:33.037Z,8.10
2022-09-21T06:39:00.662Z,7.53
2022-09-21T06:41:28.154Z,8.02
2022-09-21T06:43:57.125Z,7.30
2022-09-21T06:46:24.920Z,7.72
2022-09-21T06:48:52.279Z,7.72
2022-09-21T06:51:21.586Z,7.50
2022-09-21T06:53:55.664Z,7.60
2022-09-21T06:56:23.444Z,7.57
2022-09-21T06:58:52.492Z,7.72
2022-09-21T07:01:20.105Z,7.55
2022-09-21T07:03:51.781Z,7.45
2022-09-21T07:06:20.433Z,7.95
2022-09-21T07:11:41.876Z,8.13
2022-09-21T07:14:09.201Z,7.10
2022-09-21T07:16:37.490Z,6.90
2022-09-21T07:19:11.815Z,7.15
2022-09-21T07:21:39.850Z,6.47
2022-09-21T07:24:11.672Z,10.38
2022-09-21T07:26:40.000Z,8.43
2022-09-21T07:29:07.489Z,8.73
2022-09-21T07:31:35.282Z,7.43
2022-09-21T07:34:03.077Z,6.32
2022-09-21T07:36:30.876Z,6.75
2022-09-21T07:38:58.480Z,6.05
2022-09-21T07:41:26.153Z,6.28
2022-09-21T07:43:53.648Z,6.65
2022-09-21T07:46:21.106Z,6.25
2022-09-21T07:48:48.708Z,7.15
2022-09-21T07:51:16.766Z,8.05
2022-09-21T07:53:46.953Z,8.75
2022-09-21T07:56:17.830Z,7.60
2022-09-21T07:59:03.822Z,6.75
2022-09-21T08:01:32.607Z,6.03
2022-09-21T08:04:00.815Z,7.10
2022-09-21T08:06:30.496Z,5.87
2022-09-21T08:08:58.325Z,6.93
2022-09-21T08:11:27.754Z,7.45
2022-09-21T08:13:57.634Z,5.93
2022-09-21T08:16:27.626Z,5.85
2022-09-21T08:18:55.181Z,5.82
2022-09-21T08:21:22.934Z,7.37
2022-09-21T08:23:50.535Z,5.62
2022-09-21T08:26:19.812Z,5.57
2022-09-21T08:28:49.240Z,5.18
2022-09-21T08:31:19.755Z,6.15
2022-09-21T08:33:48.136Z,7.30
2022-09-21T08:36:15.720Z,5.75
2022-09-21T08:38:43.391Z,5.20
2022-09-21T08:41:20.200Z,5.03
2022-09-21T08:44:07.659Z,4.25
2022-09-21T08:46:36.998Z,5.82
2022-09-21T08:49:17.836Z,4.80
2022-09-21T08:52:16.906Z,4.25
2022-09-21T08:54:52.769Z,4.68
2022-09-21T08:57:20.509Z,3.83
2022-09-21T08:59:49.504Z,4.43
2022-09-21T09:02:54.614Z,7.18
2022-09-21T09:05:33.757Z,4.85
2022-09-21T09:08:04.319Z,4.60
2022-09-21T09:10:55.927Z,5.20
2022-09-21T09:13:32.400Z,4.80
2022-09-21T09:16:15.300Z,5.78
2022-09-21T09:18:46.469Z,4.75
2022-09-21T09:21:30.777Z,4.37
2022-09-21T09:24:06.220Z,4.72
2022-09-21T09:26:43.089Z,4.43
2022-09-21T09:29:29.569Z,3.55
2022-09-21T09:31:59.420Z,6.12
2022-09-21T09:34:32.542Z,3.90
2022-09-21T09:37:09.335Z,6.85
2022-09-21T09:39:37.098Z,3.78
2022-09-21T09:42:23.775Z,4.05
2022-09-21T09:45:25.493Z,4.12
2022-09-21T09:48:12.556Z,3.58
2022-09-21T09:50:40.751Z,4.35
2022-09-21T09:53:13.498Z,3.67
2022-09-21T09:55:43.880Z,5.05
2022-09-21T09:58:17.729Z,4.30
2022-09-21T10:00:46.372Z,4.57
2022-09-21T10:03:19.656Z,4.07
2022-09-21T10:05:47.611Z,4.32
2022-09-21T10:08:34.453Z,3.80
2022-09-21T10:11:02.943Z,3.72
2022-09-21T10:13:32.391Z,3.60
2022-09-21T10:16:19.762Z,3.15
2022-09-21T10:18:49.923Z,2.85
2022-09-21T10:21:52.088Z,2.83
2022-09-21T10:24:25.870Z,3.00
2022-09-21T10:27:11.750Z,3.58
2022-09-21T10:29:47.857Z,3.50
2022-09-21T10:32:16.395Z,3.25
2022-09-21T10:35:12.935Z,3.12
2022-09-21T10:37:46.399Z,3.05
2022-09-21T10:40:20.270Z,4.33
2022-09-21T10:42:59.079Z,3.67
2022-09-21T10:45:31.830Z,2.80
2022-09-21T10:48:05.333Z,2.60
2022-09-21T10:50:39.636Z,2.75
2022-09-21T10:53:09.892Z,3.25
2022-09-21T10:55:44.076Z,4.47
2022-09-21T10:58:20.370Z,2.60
2022-09-21T11:00:51.804Z,2.08
2022-09-21T11:03:57.753Z,2.47
2022-09-21T11:06:37.716Z,1.85
2022-09-21T11:09:23.765Z,3.00
2022-09-21T11:11:58.207Z,2.55
2022-09-21T11:14:38.650Z,2.72
2022-09-21T11:17:20.132Z,2.15
2022-09-21T11:19:52.704Z,3.12
2022-09-21T11:22:32.680Z,1.90
2022-09-21T11:25:18.673Z,2.00
2022-09-21T11:27:49.385Z,1.25
2022-09-21T11:30:18.583Z,1.40
2022-09-21T11:33:02.327Z,1.45
2022-09-21T11:35:50.660Z,1.95
2022-09-21T11:38:46.331Z,1.70
2022-09-21T11:44:03.645Z,1.48
2022-09-21T11:46:46.792Z,2.03
2022-09-21T11:49:39.243Z,1.45
2022-09-21T11:52:39.081Z,1.62
2022-09-21T11:55:06.697Z,1.92
2022-09-21T11:57:45.544Z,1.15
2022-09-21T12:00:18.800Z,1.87
2022-09-21T12:03:16.092Z,1.17
2022-09-21T12:05:43.330Z,1.08
2022-09-21T12:08:37.141Z,1.80
2022-09-21T12:11:49.169Z,1.87
2022-09-21T12:14:28.607Z,1.30
2022-09-21T12:17:05.897Z,1.20
2022-09-21T12:20:02.290Z,1.50
2022-09-21T12:22:36.186Z,3.17
2022-09-21T12:25:24.078Z,1.55
2022-09-21T12:28:01.266Z,1.25
2022-09-21T12:30:31.366Z,2.60
2022-09-21T12:33:12.841Z,1.55
2022-09-21T12:35:46.758Z,2.45
2022-09-21T12:38:21.281Z,1.40
2022-09-21T12:41:11.398Z,1.37
2022-09-21T12:43:44.398Z,1.10
2022-09-21T12:46:24.420Z,1.20
2022-09-21T12:48:52.995Z,1.12
2022-09-21T12:51:37.137Z,1.52
2022-09-21T12:54:12.398Z,1.77
2022-09-21T12:56:52.201Z,0.90
2022-09-21T12:59:43.943Z,1.00
2022-09-21T13:02:17.820Z,0.70
2022-09-21T13:04:48.064Z,1.10
2022-09-21T13:07:43.880Z,0.70
2022-09-21T13:10:24.076Z,1.00
2022-09-21T13:12:56.269Z,0.80
2022-09-21T13:15:30.024Z,0.82
2022-09-21T13:18:26.330Z,1.17
2022-09-21T13:20:54.382Z,1.00
2022-09-21T13:23:30.387Z,2.65
2022-09-21T13:26:07.149Z,2.58
2022-09-21T13:28:56.888Z,1.48
2022-09-21T13:31:41.740Z,1.98
2022-09-21T13:34:15.501Z,1.33
2022-09-21T13:36:43.360Z,1.52
2022-09-21T13:39:17.194Z,0.80
2022-09-21T13:42:02.929Z,2.08
2022-09-21T13:44:34.347Z,3.97
2022-09-21T13:47:02.234Z,1.23
2022-09-21T13:49:39.825Z,1.30
2022-09-21T13:52:13.610Z,1.80
2022-09-21T13:54:52.957Z,3.00
2022-09-21T13:57:38.794Z,3.35
2022-09-21T14:00:09.939Z,1.77
2022-09-21T14:02:42.824Z,2.37
2022-09-21T14:05:39.344Z,1.73
2022-09-21T14:08:18.807Z,1.73
2022-09-21T14:10:55.887Z,2.42
2022-09-21T14:13:27.571Z,1.48
2022-09-21T14:15:55.494Z,1.65
2022-09-21T14:18:37.631Z,1.75
2022-09-21T14:21:11.206Z,1.58
2022-09-21T14:23:40.151Z,1.40
2022-09-21T14:26:39.958Z,1.45
2022-09-21T14:29:16.221Z,1.98
2022-09-21T14:31:44.123Z,7.07
2022-09-21T14:34:17.933Z,2.12
2022-09-21T14:36:47.606Z,1.77
2022-09-21T14:39:29.494Z,1.60
2022-09-21T14:41:59.322Z,1.55
2022-09-21T14:44:30.036Z,1.65
2022-09-21T14:47:06.776Z,1.35
2022-09-21T14:49:52.459Z,1.37
2022-09-21T14:52:38.875Z,1.73
2022-09-21T14:55:16.795Z,1.37
2022-09-21T14:58:16.568Z,1.70
2022-09-21T15:00:49.667Z,1.65
2022-09-21T15:03:35.778Z,1.55
2022-09-21T15:06:44.697Z,2.40
2022-09-21T15:10:04.217Z,1.10
2022-09-21T15:12:46.536Z,1.48
2022-09-21T15:15:40.682Z,1.50
2022-09-21T15:18:20.087Z,1.25
2022-09-21T15:21:04.105Z,1.37
2022-09-21T15:23:34.315Z,1.52
2022-09-21T15:26:05.169Z,1.48
2022-09-21T15:28:57.904Z,1.42
2022-09-21T15:31:24.578Z,1.10
2022-09-21T15:33:53.362Z,1.00
2022-09-21T15:36:23.256Z,1.73
2022-09-21T15:38:52.575Z,1.67
2022-09-21T15:41:44.968Z,3.12
2022-09-21T15:44:16.325Z,2.45
2022-09-21T15:46:48.170Z,3.80
2022-09-21T15:49:22.026Z,5.30
2022-09-21T15:51:54.609Z,6.03
2022-09-21T15:54:32.014Z,2.97
2022-09-21T15:57:05.953Z,4.12
2022-09-21T15:59:35.827Z,1.62
2022-09-21T16:02:11.756Z,1.77
2022-09-21T16:04:49.265Z,2.87
2022-09-21T16:07:42.993Z,1.67
2022-09-21T16:10:33.849Z,1.77
2022-09-21T16:13:23.940Z,2.67
2022-09-21T16:16:02.620Z,2.40
2022-09-21T16:18:43.122Z,2.80
2022-09-21T16:21:24.259Z,1.60
2022-09-21T16:23:52.730Z,2.58
2022-09-21T16:26:28.296Z,5.20
2022-09-21T16:29:16.628Z,1.85
2022-09-21T16:31:49.706Z,2.20
2022-09-21T16:34:33.276Z,1.92
2022-09-21T16:37:02.789Z,2.55
2022-09-21T16:39:30.147Z,2.20
2022-09-21T16:42:00.983Z,2.08
2022-09-21T16:44:40.129Z,3.35
2022-09-21T16:47:13.404Z,2.03
2022-09-21T16:49:41.441Z,2.50
2022-09-21T16:52:09.317Z,2.90
2022-09-21T16:54:37.492Z,2.95
2022-09-21T16:57:06.370Z,2.45
2022-09-21T16:59:35.751Z,2.12
2022-09-21T17:02:05.020Z,2.08
2022-09-21T17:04:34.369Z,3.55
2022-09-21T17:07:05.016Z,8.10
2022-09-21T17:09:41.458Z,11.88
2022-09-21T17:12:11.573Z,9.13
2022-09-21T17:14:45.621Z,21.67
2022-09-21T17:19:48.477Z,19.70
2022-09-21T17:22:19.494Z,12.90
2022-09-21T17:24:51.693Z,12.40
2022-09-21T17:27:21.870Z,11.35
2022-09-21T17:29:50.247Z,10.90
2022-09-21T17:32:20.572Z,7.28
2022-09-21T17:34:58.836Z,9.52
2022-09-21T17:37:26.840Z,8.98
2022-09-21T17:39:54.254Z,6.12
2022-09-21T17:42:25.136Z,6.80
2022-09-21T17:45:38.751Z,7.43
2022-09-21T17:48:13.049Z,7.10
2022-09-21T17:50:40.796Z,5.20
2022-09-21T17:53:27.678Z,5.05
2022-09-21T17:55:58.545Z,5.87
2022-09-21T17:58:47.573Z,5.60
2022-09-21T18:01:36.087Z,4.22
2022-09-21T18:04:04.694Z,5.15
2022-09-21T18:06:34.091Z,5.78
2022-09-21T18:09:01.796Z,5.18
2022-09-21T18:11:45.905Z,5.22
2022-09-21T18:14:31.666Z,8.50
2022-09-21T18:17:01.894Z,12.07
2022-09-21T18:19:52.293Z,16.10
2022-09-21T18:23:00.457Z,12.48
2022-09-21T18:25:47.774Z,9.35
2022-09-21T18:28:24.148Z,8.93
2022-09-21T18:31:15.135Z,9.65
2022-09-21T18:33:48.533Z,10.48
2022-09-21T18:36:22.300Z,8.50
2022-09-21T18:39:16.825Z,4.47
2022-09-21T18:42:09.243Z,5.05
2022-09-21T18:44:42.109Z,4.85
2022-09-21T18:47:16.306Z,4.72
2022-09-21T18:50:02.513Z,3.28
2022-09-21T18:52:29.995Z,4.12
2022-09-21T18:54:57.869Z,5.35
2022-09-21T18:57:25.863Z,3.92
2022-09-21T18:59:54.034Z,3.55
2022-09-21T19:02:21.967Z,3.67
2022-09-21T19:04:49.769Z,4.18
2022-09-21T19:07:28.274Z,3.42
2022-09-21T19:10:13.707Z,4.28
2022-09-21T19:16:02.040Z,4.57
2022-09-21T19:18:41.666Z,4.25
2022-09-21T19:21:17.311Z,3.80
2022-09-21T19:23:59.253Z,4.65
2022-09-21T19:26:45.116Z,4.57
2022-09-21T19:29:31.839Z,3.87
2022-09-21T19:31:59.645Z,4.10
2022-09-21T19:34:28.134Z,4.32
2022-09-21T19:36:57.357Z,5.35
2022-09-21T19:39:25.283Z,3.58
2022-09-21T19:42:08.913Z,3.95
2022-09-21T19:45:02.377Z,4.05
2022-09-21T19:47:40.902Z,4.47
2022-09-21T19:50:28.172Z,3.92
2022-09-21T19:53:15.882Z,4.47
2022-09-21T19:56:02.590Z,4.53
2022-09-21T19:58:48.715Z,3.90
2022-09-21T20:01:18.100Z,4.25
2022-09-21T20:03:47.207Z,3.65
2022-09-21T20:06:29.346Z,4.28
2022-09-21T20:09:13.086Z,4.15
2022-09-21T20:12:07.940Z,4.97
2022-09-21T20:14:38.852Z,4.43
2022-09-21T20:17:10.686Z,5.43
2022-09-21T20:19:53.073Z,4.90
2022-09-21T20:22:46.849Z,4.60
2022-09-21T20:25:21.588Z,4.15
2022-09-21T20:27:51.694Z,3.90
2022-09-21T20:30:33.838Z,4.05
2022-09-21T20:33:08.940Z,3.17
2022-09-21T20:35:36.659Z,3.12
2022-09-21T20:38:04.094Z,4.47
2022-09-21T20:40:32.370Z,4.75
2022-09-21T20:43:01.236Z,5.22
2022-09-21T20:45:29.629Z,4.20
2022-09-21T20:48:13.117Z,3.87
2022-09-21T20:50:44.536Z,3.70
2022-09-21T20:53:12.674Z,5.00
2022-09-21T20:55:41.155Z,3.72
2022-09-21T20:58:12.930Z,3.37
2022-09-21T21:00:40.468Z,5.93
2022-09-21T21:03:07.994Z,3.37
2022-09-21T21:05:35.614Z,5.30
2022-09-21T21:08:03.740Z,4.10
2022-09-21T21:10:31.818Z,3.70
2022-09-21T21:12:59.441Z,3.78
2022-09-21T21:15:27.310Z,3.33
2022-09-21T21:17:54.790Z,4.85
2022-09-21T21:20:22.687Z,4.68
2022-09-21T21:22:51.117Z,3.53
2022-09-21T21:25:18.569Z,3.50
2022-09-21T21:27:46.290Z,3.65
2022-09-21T21:30:13.745Z,3.92
2022-09-21T21:32:42.743Z,2.95
2022-09-21T21:35:10.351Z,2.87
2022-09-21T21:37:37.836Z,3.85
2022-09-21T21:40:05.748Z,3.08
2022-09-21T21:42:34.354Z,3.47
2022-09-21T21:45:01.684Z,3.12
2022-09-21T21:47:44.607Z,3.58
2022-09-21T21:50:12.283Z,3.65
2022-09-21T21:52:40.605Z,3.92
2022-09-21T21:55:08.383Z,3.72
2022-09-21T21:57:36.002Z,3.83
2022-09-21T22:00:04.858Z,3.62
2022-09-21T22:02:32.441Z,3.22
2022-09-21T22:05:00.137Z,3.80
2022-09-21T22:07:27.463Z,6.15
2022-09-21T22:09:55.589Z,3.70
2022-09-21T22:12:23.284Z,4.03
2022-09-21T22:14:50.592Z,3.92
2022-09-21T22:17:17.910Z,3.95
2022-09-21T22:19:45.571Z,4.28
2022-09-21T22:22:12.884Z,3.60
2022-09-21T22:24:40.231Z,4.60
2022-09-21T22:27:07.846Z,3.78
2022-09-21T22:29:35.844Z,4.12
2022-09-21T22:32:03.284Z,4.22
2022-09-21T22:34:30.970Z,3.55
2022-09-21T22:36:59.080Z,3.97
2022-09-21T22:39:26.706Z,6.47
2022-09-21T22:41:54.352Z,3.90
2022-09-21T22:44:21.678Z,3.80
2022-09-21T22:46:49.007Z,3.72
2022-09-21T22:49:16.714Z,3.58
2022-09-21T22:51:44.071Z,4.22
2022-09-21T22:54:11.398Z,3.92
2022-09-21T22:56:38.980Z,4.85
2022-09-21T22:59:06.360Z,5.12
2022-09-21T23:01:35.501Z,4.97
2022-09-21T23:04:11.612Z,4.12
2022-09-21T23:06:41.430Z,4.15
2022-09-21T23:09:15.733Z,4.35
2022-09-21T23:11:47.160Z,3.90
2022-09-21T23:14:16.407Z,3.92
2022-09-21T23:16:44.144Z,5.05
2022-09-21T23:19:15.711Z,3.65
2022-09-21T23:21:49.632Z,5.62
2022-09-21T23:24:17.938Z,4.12
2022-09-21T23:26:45.855Z,4.00
2022-09-21T23:29:15.116Z,5.70
2022-09-21T23:31:45.382Z,5.85
2022-09-21T23:34:14.674Z,3.75
2022-09-21T23:36:42.672Z,4.32
2022-09-21T23:39:11.738Z,4.68
2022-09-21T23:41:39.727Z,5.32
2022-09-21T23:44:07.070Z,4.70
2022-09-21T23:46:36.016Z,5.95
2022-09-21T23:49:04.179Z,4.12
2022-09-21T23:51:31.537Z,4.78
2022-09-21T23:53:59.558Z,4.80
2022-09-21T23:56:28.492Z,4.40
2022-09-21T23:58:56.244Z,4.90
